Omega, Georgia
Current Conditions -  °F | °C
As of 9:50 AM on Wednesday 22 Oct 2014 (Local Time) from KTMA Reporting Station
Clear Clear  
Wind Chill: 60°   Ceiling: Unl
Heat Index: 60°   Visibility: 10mi
Dew Point: 49°   Wind: 8mph
Humidity: 66%   Direction: 40°NE
Pressure: 30.08"   Gusts: NA
Location:  31.34°N, 83.59°W
Report Text: KTMA 221350Z AUTO 04007KT 10SM CLR 16/09 A3008 RMK AO2 T01560092
Loading
Personal Weather Stations






























Interactive Weather Map
Tropical Storm Tracking
New forecast layout! Learn more

10-Day Weather Forecast

Advertisements
Track Severe Weather on mobile